Terminal Aerodrome Forecast
Issued by NWS

Home | Current Version | Previous Version | Text Only | Print | Product List | Glossary On
Versions: 1 2 3 4 5 6 7 8 9 10 11 12 13 14
000
FTUS42 KMHX 021136
TAFISO
TAF
KISO 021136Z 0212/0312 24004KT 2SM BR OVC002
     FM021400 29005KT P6SM SCT007 OVC020
      TEMPO 0214/0215 5SM BR OVC005
     FM021800 36009KT P6SM SCT025 BKN050
     FM030000 05004KT P6SM SCT250
      AMD LTD TO CLD VIS AND WIND=

USA.gov is the U.S. government's official web portal to all federal, state and local government web resources and services.